Time;durP1;ratioP1;P1;durP2;ratioP2;P2;SDS_P1;SDS_P2;PMS_P1;PMS_P2;Temp;Humidity;BMP_temperature;BMP_pressure;BME280_temperature;BME280_humidity;BME280_pressure;Samples;Min_cycle;Max_cycle;Signal;HPM_P1;HPM_P2
2023/06/19 00:02:10;;;;;;;25.35;13.68;;;;;;;18.17;100.00;98844.69;4939597;29;20055;-95
2023/06/19 00:04:36;;;;;;;26.00;13.50;;;;;;;18.26;100.00;98845.97;4939355;28;20414;-94
2023/06/19 00:07:04;;;;;;;28.73;14.88;;;;;;;18.36;100.00;98849.00;4940325;29;20047;-95
2023/06/19 00:09:32;;;;;;;28.13;14.77;;;;;;;18.30;100.00;98852.88;4927240;29;20052;-95
2023/06/19 00:11:59;;;;;;;28.08;13.73;;;;;;;18.30;100.00;98852.88;4941138;29;20130;-93
2023/06/19 00:14:25;;;;;;;29.55;13.88;;;;;;;18.32;100.00;98863.56;4940201;29;20138;-94
2023/06/19 00:16:51;;;;;;;29.42;14.20;;;;;;;18.32;100.00;98850.13;4955619;28;20585;-92
2023/06/19 00:19:17;;;;;;;28.23;14.02;;;;;;;18.43;100.00;98859.34;4940585;29;20126;-93
2023/06/19 00:21:43;;;;;;;28.45;14.40;;;;;;;18.28;100.00;98849.41;4930853;29;20055;-95
2023/06/19 00:24:10;;;;;;;26.23;14.32;;;;;;;18.00;100.00;98855.50;4946676;29;20098;-95
2023/06/19 00:26:38;;;;;;;28.08;14.82;;;;;;;17.93;100.00;98848.72;4940339;29;20071;-95
2023/06/19 00:29:04;;;;;;;29.85;14.88;;;;;;;17.86;100.00;98845.50;4943785;29;20067;-93
2023/06/19 00:31:30;;;;;;;30.60;15.65;;;;;;;17.72;100.00;98835.50;4939486;29;20048;-94
2023/06/19 00:33:56;;;;;;;31.63;15.43;;;;;;;17.69;100.00;98843.72;4940107;29;20398;-94
2023/06/19 00:36:25;;;;;;;25.88;14.00;;;;;;;17.63;100.00;98839.56;4956137;29;20050;-93
2023/06/19 00:38:52;;;;;;;30.23;14.65;;;;;;;17.71;100.00;98855.25;4975303;28;20043;-94
2023/06/19 00:41:18;;;;;;;32.80;17.15;;;;;;;17.54;100.00;98844.56;4963612;28;20040;-94
2023/06/19 00:43:45;;;;;;;27.02;14.80;;;;;;;17.46;100.00;98847.69;4938685;29;20047;-92
2023/06/19 00:46:12;;;;;;;31.75;15.32;;;;;;;17.52;100.00;98871.56;4949528;29;20056;-94
2023/06/19 00:48:39;;;;;;;30.20;15.57;;;;;;;17.52;100.00;98876.03;4939400;29;20046;-92
2023/06/19 00:51:05;;;;;;;30.00;15.55;;;;;;;17.39;100.00;98854.31;4939451;28;20047;-93
2023/06/19 00:53:33;;;;;;;38.03;15.63;;;;;;;17.39;100.00;98867.75;4935136;28;20048;-95
2023/06/19 00:56:00;;;;;;;36.13;17.20;;;;;;;17.39;100.00;98874.03;4954556;28;20525;-92
2023/06/19 00:58:26;;;;;;;29.05;15.05;;;;;;;17.41;100.00;98888.25;4939239;29;20075;-94
2023/06/19 01:00:54;;;;;;;35.60;17.38;;;;;;;17.22;100.00;98857.94;4933829;29;20040;-93
2023/06/19 01:03:20;;;;;;;34.25;17.20;;;;;;;17.28;100.00;98880.91;4936996;29;20090;-94
2023/06/19 01:05:48;;;;;;;34.08;16.85;;;;;;;17.37;100.00;98905.50;4939033;29;20067;-95
2023/06/19 01:08:32;;;;;;;33.65;16.08;;;;;;;17.33;100.00;98920.03;4940547;29;20486;-93
2023/06/19 01:11:01;;;;;;;36.53;17.30;;;;;;;17.28;100.00;98905.09;4939430;29;20107;-93
2023/06/19 01:13:28;;;;;;;;;;;;;;;17.18;100.00;98902.03;4938327;29;20398;-93
2023/06/19 01:15:57;;;;;;;39.42;17.17;;;;;;;17.23;100.00;98919.63;4938593;29;19919;-94
2023/06/19 01:18:25;;;;;;;42.13;18.35;;;;;;;17.08;100.00;98923.13;4938911;29;20039;-93
2023/06/19 01:20:51;;;;;;;35.50;17.00;;;;;;;17.00;100.00;98896.66;4955046;28;20044;-93
2023/06/19 01:23:18;;;;;;;41.83;17.58;;;;;;;17.07;100.00;98893.63;4938910;29;20044;-93
2023/06/19 01:25:45;;;;;;;42.42;18.17;;;;;;;17.21;100.00;98909.91;4938742;29;20070;-92
2023/06/19 01:28:12;;;;;;;39.78;18.17;;;;;;;17.11;100.00;98887.16;4938790;29;20039;-94
2023/06/19 01:30:41;;;;;;;38.00;18.17;;;;;;;17.35;100.00;98923.53;4938431;29;20490;-93
2023/06/19 01:33:20;;;;;;;36.83;16.85;;;;;;;17.17;100.00;98917.25;4933983;28;20112;-92
2023/06/19 01:35:47;;;;;;;43.97;19.15;;;;;;;17.22;100.00;98931.34;4919623;29;20052;-94
2023/06/19 01:38:14;;;;;;;46.55;19.60;;;;;;;17.18;100.00;98939.66;4918791;29;20055;-92
2023/06/19 01:40:43;;;;;;;44.50;19.10;;;;;;;17.08;100.00;98933.00;4932031;29;20040;-93
2023/06/19 01:43:10;;;;;;;37.88;18.05;;;;;;;16.92;100.00;98903.38;4939499;29;20075;-93
2023/06/19 01:45:36;;;;;;;41.78;19.23;;;;;;;16.94;100.00;98912.22;4939350;28;20079;-92
2023/06/19 01:48:02;;;;;;;41.08;18.20;;;;;;;17.03;100.00;98934.09;4938114;28;20146;-94
2023/06/19 01:50:28;;;;;;;40.78;19.25;;;;;;;16.87;100.00;98914.31;4939042;29;20063;-93
2023/06/19 01:52:54;;;;;;;45.47;18.95;;;;;;;16.95;100.00;98928.25;4938986;29;20048;-93
2023/06/19 01:55:20;;;;;;;48.63;20.63;;;;;;;16.82;100.00;98902.94;4942372;29;20047;-93
2023/06/19 01:57:48;;;;;;;45.15;18.35;;;;;;;16.97;100.00;98922.81;4942822;29;20076;-93
2023/06/19 02:00:14;;;;;;;48.10;20.90;;;;;;;16.83;100.00;98918.13;4939570;29;20040;-93
2023/06/19 02:02:40;;;;;;;44.50;20.13;;;;;;;16.65;100.00;98895.69;4957967;28;20043;-93
2023/06/19 02:05:06;;;;;;;43.88;19.98;;;;;;;16.76;100.00;98936.34;4935434;29;21552;-94
2023/06/19 02:07:32;;;;;;;43.70;20.17;;;;;;;16.74;100.00;98934.66;4939315;29;20087;-93
2023/06/19 02:09:58;;;;;;;44.40;19.70;;;;;;;16.66;100.00;98910.88;4942441;28;20093;-93
2023/06/19 02:12:24;;;;;;;41.58;18.67;;;;;;;16.64;100.00;98910.94;4942018;29;20051;-94
2023/06/19 02:14:51;;;;;;;38.67;18.63;;;;;;;16.71;100.00;98922.25;4936099;29;20040;-93
2023/06/19 02:17:17;;;;;;;47.90;19.98;;;;;;;16.71;100.00;98922.25;4934096;29;20051;-93
2023/06/19 02:19:43;;;;;;;37.15;17.90;;;;;;;16.54;100.00;98906.97;4942148;29;20043;-94
2023/06/19 02:22:09;;;;;;;39.22;17.63;;;;;;;16.58;100.00;98927.34;4941859;28;20126;-95
2023/06/19 02:24:36;;;;;;;37.35;17.52;;;;;;;16.52;100.00;98918.75;4941556;29;20078;-92
2023/06/19 02:27:03;;;;;;;38.33;17.55;;;;;;;16.41;100.00;98914.75;4940949;29;20059;-93
2023/06/19 02:29:29;;;;;;;33.42;16.90;;;;;;;16.48;100.00;98926.09;4941475;29;20050;-94
2023/06/19 02:31:57;;;;;;;31.35;16.02;;;;;;;16.41;100.00;98908.53;4941531;28;20142;-93
2023/06/19 02:34:24;;;;;;;34.17;16.80;;;;;;;16.38;100.00;98914.06;4938723;29;20047;-93
2023/06/19 02:36:49;;;;;;;33.08;16.35;;;;;;;16.39;100.00;98930.09;4939493;29;20051;-93
2023/06/19 02:39:15;;;;;;;31.30;15.70;;;;;;;16.29;100.00;98903.78;4939460;29;20115;-93
2023/06/19 02:41:45;;;;;;;30.48;15.35;;;;;;;16.30;100.00;98908.19;4941399;29;20483;-94
2023/06/19 02:44:11;;;;;;;27.80;15.10;;;;;;;16.38;100.00;98924.78;4941486;28;20043;-93
2023/06/19 02:46:37;;;;;;;25.95;14.23;;;;;;;16.31;100.00;98931.38;4936462;29;20091;-93
2023/06/19 02:49:05;;;;;;;29.45;13.95;;;;;;;16.17;100.00;98916.81;4930615;29;20047;-93
2023/06/19 02:51:31;;;;;;;29.40;13.80;;;;;;;16.16;100.00;98933.84;4941687;29;20091;-92
2023/06/19 02:53:56;;;;;;;26.02;14.15;;;;;;;16.13;100.00;98935.81;4941348;29;20051;-94
2023/06/19 02:56:24;;;;;;;22.80;12.77;;;;;;;16.05;100.00;98925.44;4940732;29;20040;-93
2023/06/19 02:58:49;;;;;;;26.85;13.80;;;;;;;15.96;100.00;98928.53;4941491;29;20072;-92
2023/06/19 03:01:15;;;;;;;27.42;13.55;;;;;;;15.94;100.00;98927.75;4941663;29;20060;-92
2023/06/19 03:03:41;;;;;;;23.02;12.95;;;;;;;16.04;100.00;98944.28;4935849;29;20044;-92
2023/06/19 03:06:09;;;;;;;22.27;12.50;;;;;;;16.20;100.00;98962.28;4923917;29;20071;-93
2023/06/19 03:08:35;;;;;;;25.88;11.60;;;;;;;16.10;100.00;98942.19;4939903;29;20040;-93
2023/06/19 03:11:04;;;;;;;21.73;12.07;;;;;;;15.90;100.00;98920.81;4941815;29;20398;-93
2023/06/19 03:13:30;;;;;;;18.77;10.55;;;;;;;15.98;100.00;98938.28;4940852;29;20048;-93
2023/06/19 03:15:56;;;;;;;20.23;10.65;;;;;;;15.96;100.00;98939.28;4936263;29;20075;-93
2023/06/19 03:18:22;;;;;;;18.02;10.98;;;;;;;16.07;100.00;98963.81;4940532;29;20074;-94
2023/06/19 03:20:48;;;;;;;17.08;10.98;;;;;;;15.83;100.00;98925.59;4940848;29;20047;-93
2023/06/19 03:23:16;;;;;;;16.33;10.32;;;;;;;15.89;100.00;98946.72;4941371;29;20044;-94
2023/06/19 03:25:42;;;;;;;18.90;11.15;;;;;;;16.06;100.00;98974.59;4940998;29;20048;-93
2023/06/19 03:28:08;;;;;;;17.65;10.45;;;;;;;15.92;100.00;98954.66;4941682;29;20055;-93
2023/06/19 03:30:34;;;;;;;17.90;11.10;;;;;;;16.04;100.00;98984.53;4941049;28;20027;-93
2023/06/19 03:33:00;;;;;;;18.15;10.95;;;;;;;16.00;100.00;98968.59;4932622;28;20043;-93
2023/06/19 03:35:26;;;;;;;19.42;10.15;;;;;;;16.00;100.00;98973.94;4940523;29;20513;-94
2023/06/19 03:37:52;;;;;;;19.20;11.13;;;;;;;15.91;100.00;98960.06;4940798;29;20047;-92
2023/06/19 03:40:19;;;;;;;16.50;10.57;;;;;;;16.07;100.00;98985.28;4940833;29;20055;-93
2023/06/19 03:42:45;;;;;;;20.30;9.82;;;;;;;16.00;100.00;98968.59;4956190;29;20075;-92
2023/06/19 03:45:11;;;;;;;17.58;10.20;;;;;;;15.92;100.00;98953.78;4940472;29;20047;-93
2023/06/19 03:47:37;;;;;;;17.15;10.65;;;;;;;16.10;100.00;98985.13;4940961;29;20098;-94
2023/06/19 03:50:03;;;;;;;17.83;10.65;;;;;;;16.12;100.00;98988.59;4941259;29;20048;-95
2023/06/19 03:52:31;;;;;;;17.33;10.20;;;;;;;16.15;100.00;98977.72;4940673;29;20501;-94
2023/06/19 03:54:56;;;;;;;15.88;9.77;;;;;;;16.01;100.00;98948.00;4940630;29;20105;-94
2023/06/19 03:57:24;;;;;;;15.75;9.50;;;;;;;16.22;100.00;98973.81;4940571;29;20079;-94
2023/06/19 03:59:52;;;;;;;18.52;10.65;;;;;;;16.25;100.00;98982.66;4940863;29;20044;-94
2023/06/19 04:02:17;;;;;;;17.50;10.50;;;;;;;16.23;100.00;98978.22;4940336;29;20052;-93
2023/06/19 04:04:43;;;;;;;15.98;10.02;;;;;;;16.18;100.00;98966.84;4940206;29;20077;-94
2023/06/19 04:07:09;;;;;;;16.35;10.05;;;;;;;16.18;100.00;98966.00;4940207;29;20047;-95
2023/06/19 04:09:35;;;;;;;17.10;10.55;;;;;;;16.12;100.00;98953.72;4940057;29;20058;-95
2023/06/19 04:12:01;;;;;;;15.63;9.88;;;;;;;16.14;100.00;98967.06;4940499;29;20044;-94
2023/06/19 04:14:28;;;;;;;14.73;10.20;;;;;;;16.06;100.00;98948.63;4938934;29;20279;-95
2023/06/19 04:16:54;;;;;;;15.70;10.32;;;;;;;16.23;100.00;98975.56;4939328;28;20083;-94
2023/06/19 04:19:20;;;;;;;15.88;10.80;;;;;;;16.27;100.00;98980.78;4940401;29;20052;-95
2023/06/19 04:21:46;;;;;;;17.90;10.80;;;;;;;16.08;100.00;98944.06;4939545;29;20502;-92
2023/06/19 04:24:12;;;;;;;15.85;10.30;;;;;;;16.10;100.00;98939.50;4940534;29;20541;-94
2023/06/19 04:26:38;;;;;;;14.32;9.98;;;;;;;16.25;100.00;98953.16;4940078;29;20058;-92
2023/06/19 04:29:05;;;;;;;14.98;10.45;;;;;;;16.21;100.00;98945.22;4939971;29;20072;-93
2023/06/19 04:31:32;;;;;;;15.95;10.45;;;;;;;16.41;100.00;98973.81;4928518;29;20044;-94
2023/06/19 04:33:58;;;;;;;16.13;10.27;;;;;;;16.46;100.00;98962.88;4929376;29;20081;-94
2023/06/19 04:36:24;;;;;;;15.43;10.15;;;;;;;16.50;100.00;98966.25;4956134;29;20450;-93
2023/06/19 04:38:51;;;;;;;14.90;9.68;;;;;;;16.66;100.00;98977.16;4939831;29;20387;-94
2023/06/19 04:41:17;;;;;;;15.35;9.80;;;;;;;16.72;100.00;98968.75;4939772;29;20048;-93
2023/06/19 04:43:43;;;;;;;16.30;9.98;;;;;;;16.68;100.00;98937.66;4955853;29;20561;-93
2023/06/19 04:46:09;;;;;;;18.63;10.00;;;;;;;16.86;100.00;98944.81;4956006;29;20050;-93
2023/06/19 04:48:36;;;;;;;15.73;10.52;;;;;;;17.19;100.00;98979.00;4940601;29;20074;-94
2023/06/19 04:51:02;;;;;;;15.13;10.20;;;;;;;17.33;100.00;98936.16;4955755;29;20048;-93
2023/06/19 04:53:28;;;;;;;14.02;9.73;;;;;;;18.21;100.00;98951.19;4955607;28;20058;-94
2023/06/19 04:55:55;;;;;;;19.15;9.98;;;;;;;18.98;100.00;98963.03;4940421;29;20142;-94
2023/06/19 04:58:21;;;;;;;16.65;9.95;;;;;;;19.53;100.00;98934.59;4941032;29;20044;-93
2023/06/19 05:00:50;;;;;;;13.85;9.55;;;;;;;20.36;100.00;98944.75;4940436;29;20142;-94
2023/06/19 05:03:16;;;;;;;15.30;9.15;;;;;;;20.79;100.00;98928.47;4942602;29;20054;-94
2023/06/19 05:05:44;;;;;;;13.52;8.85;;;;;;;20.96;100.00;98962.47;4942373;29;20055;-95
2023/06/19 05:08:10;;;;;;;11.93;8.32;;;;;;;20.83;100.00;98954.31;4942667;29;20046;-94
2023/06/19 05:10:36;;;;;;;11.30;8.25;;;;;;;20.94;100.00;98932.84;4942089;29;20486;-94
2023/06/19 05:13:02;;;;;;;12.32;8.98;;;;;;;21.33;95.46;98931.09;4941513;29;20051;-94
2023/06/19 05:15:28;;;;;;;11.45;8.40;;;;;;;21.71;93.48;98938.44;4942844;29;20505;-95
2023/06/19 05:17:54;;;;;;;12.80;9.55;;;;;;;21.27;94.00;98926.09;4941174;29;20055;-94
2023/06/19 05:20:20;;;;;;;17.30;9.88;;;;;;;20.66;98.52;98929.25;4941770;29;20054;-95
2023/06/19 05:22:47;;;;;;;14.57;9.45;;;;;;;20.97;96.21;98926.34;4942583;29;20090;-96
2023/06/19 05:25:13;;;;;;;16.73;9.95;;;;;;;20.25;100.00;98924.69;4941723;29;20051;-95
2023/06/19 05:27:39;;;;;;;14.07;9.57;;;;;;;21.18;98.29;98946.53;4942882;29;20052;-94
2023/06/19 05:30:06;;;;;;;16.42;10.77;;;;;;;21.22;95.34;98939.09;4942194;29;20040;-93
2023/06/19 05:32:32;;;;;;;15.90;9.40;;;;;;;21.90;90.14;98944.28;4940432;29;20510;-92
2023/06/19 05:34:58;;;;;;;16.05;10.15;;;;;;;22.31;89.25;98953.16;4940745;29;20062;-94
2023/06/19 05:37:24;;;;;;;13.70;9.63;;;;;;;22.15;88.88;98956.06;4941397;29;20047;-91
2023/06/19 05:39:52;;;;;;;15.02;10.55;;;;;;;20.73;95.26;98975.66;4941106;29;20054;-94
2023/06/19 05:42:17;;;;;;;15.32;10.05;;;;;;;20.81;94.73;98935.50;4940780;29;20147;-93
2023/06/19 05:44:43;;;;;;;14.52;9.80;;;;;;;21.70;91.65;98932.13;4941255;29;20075;-94
2023/06/19 05:47:09;;;;;;;18.90;10.13;;;;;;;22.40;88.96;98933.50;4929400;29;20071;-94
2023/06/19 05:49:35;;;;;;;15.32;10.43;;;;;;;23.01;84.68;98947.13;4921458;29;20040;-94
2023/06/19 05:52:01;;;;;;;16.08;10.00;;;;;;;22.92;84.16;98935.09;4933784;29;20036;-94
2023/06/19 05:54:27;;;;;;;15.70;10.25;;;;;;;23.14;83.35;98938.91;4940620;29;20071;-94
2023/06/19 05:56:54;;;;;;;15.23;9.65;;;;;;;23.08;83.17;98942.09;4940629;29;20060;-95
2023/06/19 05:59:21;;;;;;;16.88;10.38;;;;;;;22.54;85.14;98940.63;4940237;29;20430;-95
2023/06/19 06:01:47;;;;;;;15.25;10.18;;;;;;;22.31;86.94;98935.03;4939002;29;20167;-94
2023/06/19 06:04:13;;;;;;;16.98;10.15;;;;;;;22.45;86.81;98917.78;4934389;29;20099;-95
2023/06/19 06:06:39;;;;;;;16.30;10.52;;;;;;;22.84;86.04;98925.78;4938597;29;20058;-95
2023/06/19 06:09:05;;;;;;;17.23;10.52;;;;;;;23.51;82.18;98942.38;4938845;29;20040;-95
2023/06/19 06:11:31;;;;;;;19.05;10.10;;;;;;;23.40;82.33;98942.34;4931391;29;20048;-94
2023/06/19 06:13:58;;;;;;;15.27;10.45;;;;;;;22.88;85.49;98948.97;4936506;29;20056;-94
2023/06/19 06:16:24;;;;;;;18.35;11.05;;;;;;;22.47;86.30;98942.06;4933709;29;20044;-92
2023/06/19 06:18:50;;;;;;;17.17;10.77;;;;;;;22.04;87.77;98932.47;4940136;29;20079;-93
2023/06/19 06:21:16;;;;;;;16.73;11.15;;;;;;;21.69;90.30;98938.53;4939264;29;20086;-94
2023/06/19 06:23:44;;;;;;;15.90;10.68;;;;;;;21.38;92.58;98937.06;4940193;29;20052;-94
2023/06/19 06:26:10;;;;;;;17.38;10.85;;;;;;;21.27;92.85;98935.09;4939817;29;20138;-93
2023/06/19 06:28:36;;;;;;;18.02;11.38;;;;;;;21.30;91.28;98939.44;4939172;29;20059;-93
2023/06/19 06:31:03;;;;;;;19.05;10.88;;;;;;;21.19;93.02;98942.00;4930593;28;20068;-93
2023/06/19 06:33:29;;;;;;;16.90;11.68;;;;;;;21.18;94.92;98951.09;4922214;29;20064;-94
2023/06/19 06:35:57;;;;;;;18.40;10.85;;;;;;;21.12;93.75;98928.91;4936987;29;20067;-94
2023/06/19 06:38:23;;;;;;;25.33;12.13;;;;;;;20.84;96.10;98943.41;4922827;29;20052;-94
2023/06/19 06:40:48;;;;;;;25.10;11.90;;;;;;;20.85;98.29;98941.56;4937429;29;20083;-94
2023/06/19 06:43:14;;;;;;;24.95;11.95;;;;;;;20.57;98.23;98935.28;4938750;29;20035;-95
2023/06/19 06:45:42;;;;;;;20.60;12.27;;;;;;;20.78;100.00;98960.03;4932515;29;20082;-94
2023/06/19 06:48:09;;;;;;;23.50;12.40;;;;;;;20.84;99.15;98970.44;4937146;29;20360;-93
2023/06/19 06:50:35;;;;;;;24.35;12.82;;;;;;;20.64;99.42;98939.31;4940707;29;20075;-93
2023/06/19 06:53:01;;;;;;;19.77;12.20;;;;;;;20.91;98.70;98960.94;4951717;28;20047;-93
2023/06/19 06:55:27;;;;;;;23.27;12.35;;;;;;;20.74;98.31;98938.72;4934043;29;20048;-93
2023/06/19 06:57:53;;;;;;;21.15;12.07;;;;;;;20.89;99.17;98970.13;4939504;29;20048;-95
2023/06/19 07:00:19;;;;;;;21.23;11.77;;;;;;;20.85;99.70;98950.53;4947793;29;20083;-93
2023/06/19 07:02:47;;;;;;;21.35;12.32;;;;;;;20.98;100.00;98933.50;4935102;28;20159;-95
2023/06/19 07:05:15;;;;;;;21.33;12.13;;;;;;;21.05;98.58;98942.94;4924296;29;20139;-95
2023/06/19 07:07:41;;;;;;;21.35;12.43;;;;;;;21.15;98.88;98946.75;4925890;29;20059;-95
2023/06/19 07:10:09;;;;;;;22.20;12.60;;;;;;;21.43;98.14;98937.66;4927003;29;20052;-95
2023/06/19 07:12:36;;;;;;;23.77;13.27;;;;;;;21.63;95.94;98933.56;4936288;29;20434;-93
2023/06/19 07:15:02;;;;;;;21.35;12.90;;;;;;;22.13;93.60;98937.22;4942325;29;20799;-93
2023/06/19 07:17:28;;;;;;;25.23;13.82;;;;;;;22.25;92.12;98968.03;4942678;29;20120;-94
2023/06/19 07:19:54;;;;;;;27.08;15.20;;;;;;;22.36;92.45;98961.81;4943234;29;20130;-94
2023/06/19 07:22:21;;;;;;;24.17;12.57;;;;;;;22.72;86.18;98947.41;4942762;29;20524;-94
2023/06/19 07:24:47;;;;;;;22.83;12.43;;;;;;;22.97;85.87;98948.28;4942320;29;20054;-95
2023/06/19 07:27:13;;;;;;;20.65;13.35;;;;;;;23.34;83.71;98946.38;4941634;28;20072;-95
2023/06/19 07:29:39;;;;;;;22.95;13.50;;;;;;;23.71;82.27;98939.94;4949886;29;20158;-93
2023/06/19 07:32:06;;;;;;;22.10;12.63;;;;;;;24.16;79.41;98949.03;4942484;29;20047;-95
2023/06/19 07:34:31;;;;;;;25.15;13.23;;;;;;;24.66;76.92;98948.66;4942460;29;20498;-94
2023/06/19 07:36:57;;;;;;;21.55;12.90;;;;;;;25.05;74.39;98948.16;4941661;29;20082;-94
2023/06/19 07:39:25;;;;;;;20.33;11.90;;;;;;;25.26;73.15;98934.63;4935789;29;20040;-94
2023/06/19 07:41:51;;;;;;;17.63;11.77;;;;;;;25.63;70.75;98948.66;4936141;29;20103;-94
2023/06/19 07:44:17;;;;;;;18.83;11.85;;;;;;;25.87;68.99;98940.22;4940747;29;20052;-95
2023/06/19 07:46:43;;;;;;;20.77;12.00;;;;;;;26.21;61.59;98937.28;4941682;29;20054;-94
2023/06/19 07:49:09;;;;;;;19.80;12.40;;;;;;;26.44;59.68;98932.50;4941429;29;20040;-94
2023/06/19 07:51:35;;;;;;;21.73;12.23;;;;;;;26.52;57.44;98939.97;4940503;28;20048;-94
2023/06/19 07:54:01;;;;;;;20.20;12.18;;;;;;;26.50;57.42;98936.50;4942054;29;20052;-94
2023/06/19 07:56:28;;;;;;;21.42;13.32;;;;;;;26.66;56.02;98938.78;4941247;29;20047;-94
2023/06/19 07:58:54;;;;;;;20.88;13.18;;;;;;;26.58;57.53;98936.72;4940218;28;20487;-94
2023/06/19 08:01:20;;;;;;;23.80;13.18;;;;;;;26.55;54.10;98931.53;4922477;29;20075;-96
2023/06/19 08:03:46;;;;;;;24.75;13.45;;;;;;;26.34;54.90;98929.72;4939425;29;20038;-94
2023/06/19 08:06:12;;;;;;;21.20;13.15;;;;;;;26.46;57.18;98933.22;4929895;29;20052;-93
2023/06/19 08:08:38;;;;;;;25.67;13.20;;;;;;;26.52;55.50;98908.09;4930857;29;20106;-94
2023/06/19 08:11:04;;;;;;;23.73;14.13;;;;;;;26.77;54.72;98927.72;4940507;29;20089;-94
2023/06/19 08:13:31;;;;;;;24.88;13.68;;;;;;;26.73;53.48;98918.97;4943267;29;20071;-95
2023/06/19 08:15:57;;;;;;;20.52;12.80;;;;;;;26.79;55.03;98912.09;4944507;29;20061;-95
2023/06/19 08:18:23;;;;;;;22.90;13.82;;;;;;;26.96;52.86;98905.94;4943582;29;20134;-96
2023/06/19 08:20:49;;;;;;;26.30;13.90;;;;;;;27.02;51.79;98905.38;4943193;29;20044;-95
2023/06/19 08:23:15;;;;;;;27.48;13.77;;;;;;;26.95;50.34;98890.53;4941957;29;20146;-95
2023/06/19 08:25:41;;;;;;;23.48;13.75;;;;;;;26.97;51.96;98880.34;4943367;29;20095;-95
2023/06/19 08:28:08;;;;;;;25.35;14.10;;;;;;;27.20;51.31;98882.81;4943864;29;20059;-94
2023/06/19 08:30:36;;;;;;;24.63;13.60;;;;;;;27.27;50.78;98880.38;4943778;29;20048;-96
2023/06/19 08:33:01;;;;;;;26.90;15.07;;;;;;;27.50;49.37;98886.38;4936632;29;20080;-95
2023/06/19 08:35:27;;;;;;;26.88;16.00;;;;;;;27.57;49.36;98882.06;4958568;29;20062;-94
2023/06/19 08:37:54;;;;;;;29.40;15.00;;;;;;;27.58;49.66;98879.16;4960769;29;20047;-94
2023/06/19 08:40:20;;;;;;;26.88;14.98;;;;;;;27.65;48.10;98876.72;4955784;29;20071;-95
2023/06/19 08:42:46;;;;;;;25.25;15.63;;;;;;;27.91;47.53;98893.38;4941350;29;20051;-93
2023/06/19 08:45:12;;;;;;;27.83;15.45;;;;;;;27.90;46.56;98869.78;4941207;29;20074;-94
2023/06/19 08:47:39;;;;;;;26.85;14.50;;;;;;;28.08;46.01;98868.97;4941049;29;20490;-94
2023/06/19 08:50:06;;;;;;;29.25;14.55;;;;;;;28.25;44.03;98892.78;4958295;28;20142;-93
2023/06/19 08:52:33;;;;;;;28.98;15.73;;;;;;;28.32;45.67;98876.63;4941081;29;20048;-95
2023/06/19 08:54:59;;;;;;;25.73;14.68;;;;;;;28.55;46.47;98888.91;4942343;29;20071;-95
2023/06/19 08:57:34;;;;;;;28.00;15.60;;;;;;;28.42;45.62;98871.97;4941569;29;20142;-94
2023/06/19 09:00:00;;;;;;;31.30;16.27;;;;;;;28.79;44.33;98892.94;4941158;29;20047;-95
2023/06/19 09:02:36;;;;;;;29.25;15.63;;;;;;;28.87;42.38;98890.31;4941468;29;20044;-96
2023/06/19 09:05:14;;;;;;;28.27;16.55;;;;;;;28.73;43.60;98891.69;4942634;29;20059;-95
2023/06/19 09:07:40;;;;;;;28.42;16.13;;;;;;;28.50;42.60;98868.50;4940241;29;20102;-93
2023/06/19 09:10:16;;;;;;;27.08;14.70;;;;;;;28.56;41.65;98876.09;4941132;29;20044;-94
2023/06/19 09:12:43;;;;;;;29.35;15.50;;;;;;;28.56;42.66;98895.25;4940846;29;20173;-94
2023/06/19 09:15:14;;;;;;;32.00;15.70;;;;;;;28.78;42.30;98881.16;4941292;29;20043;-95
2023/06/19 09:17:40;;;;;;;29.02;15.00;;;;;;;28.84;41.99;98883.28;4941506;28;20044;-95
2023/06/19 09:20:08;;;;;;;26.92;15.02;;;;;;;28.34;42.46;98859.06;4939703;29;20040;-93
2023/06/19 09:22:36;;;;;;;25.67;14.60;;;;;;;28.46;42.61;98870.66;4941394;29;20055;-93
2023/06/19 09:25:02;;;;;;;27.13;15.47;;;;;;;28.48;42.86;98874.16;4939352;29;20135;-94
2023/06/19 09:27:32;;;;;;;28.52;15.35;;;;;;;28.40;41.86;98865.81;4936541;29;20103;-95
2023/06/19 09:29:58;;;;;;;25.75;14.40;;;;;;;28.79;43.79;98873.78;4940141;28;20111;-95
2023/06/19 09:32:26;;;;;;;27.30;15.43;;;;;;;28.96;42.80;98880.28;4949014;29;20501;-94
2023/06/19 09:34:54;;;;;;;23.90;14.15;;;;;;;29.04;40.93;98870.28;4939333;29;20048;-95
2023/06/19 09:37:22;;;;;;;;;;;;;;;29.35;39.94;98880.84;4939400;29;20071;-92
2023/06/19 09:39:53;;;;;;;24.03;14.23;;;;;;;29.45;40.43;98843.25;4939365;29;19930;-94
2023/06/19 09:42:26;;;;;;;26.73;15.73;;;;;;;29.12;41.45;98857.72;4938975;29;20051;-93
2023/06/19 09:44:58;;;;;;;23.95;14.40;;;;;;;28.92;42.34;98878.88;4937096;29;20048;-92
2023/06/19 09:47:28;;;;;;;26.25;14.00;;;;;;;29.57;41.95;98862.16;4933594;28;20058;-94
2023/06/19 09:49:55;;;;;;;25.98;13.45;;;;;;;30.09;38.26;98853.94;4937507;28;20044;-91
2023/06/19 09:52:23;;;;;;;25.23;13.80;;;;;;;29.96;39.13;98876.31;4941415;29;20044;-94
2023/06/19 09:54:52;;;;;;;23.48;13.32;;;;;;;29.84;39.24;98852.94;4938742;29;20048;-93
2023/06/19 09:57:19;;;;;;;32.50;14.27;;;;;;;29.70;37.66;98868.13;4934736;29;20473;-94
2023/06/19 09:59:47;;;;;;;23.25;12.73;;;;;;;29.65;37.20;98865.81;4935330;29;20427;-93
2023/06/19 10:02:15;;;;;;;24.13;12.40;;;;;;;30.35;36.61;98884.09;4938402;29;20044;-94
2023/06/19 10:04:45;;;;;;;22.02;12.85;;;;;;;29.93;37.25;98879.41;4926899;29;20051;-93
2023/06/19 10:07:19;;;;;;;22.67;12.65;;;;;;;29.11;38.43;98866.94;4935369;29;20050;-93
2023/06/19 10:10:06;;;;;;;17.55;11.93;;;;;;;29.66;37.52;98861.19;4938074;29;20043;-93
2023/06/19 10:12:40;;;;;;;25.42;11.52;;;;;;;29.99;35.46;98873.25;4936758;29;20082;-92
2023/06/19 10:15:16;;;;;;;20.35;11.25;;;;;;;29.79;35.93;98874.50;4935480;29;20403;-93
2023/06/19 10:17:46;;;;;;;18.38;11.48;;;;;;;29.99;36.09;98886.94;4940027;28;20048;-93
2023/06/19 10:20:23;;;;;;;21.65;12.05;;;;;;;29.14;36.87;98883.06;4940404;29;20047;-94
2023/06/19 10:22:56;;;;;;;16.83;11.23;;;;;;;29.50;37.85;98878.41;4948356;29;20043;-93
2023/06/19 10:25:24;;;;;;;20.65;12.38;;;;;;;28.71;38.58;98888.22;4941217;29;20048;-93
2023/06/19 10:27:52;;;;;;;16.90;11.30;;;;;;;29.02;40.97;98866.00;4940027;29;20055;-93
2023/06/19 10:30:19;;;;;;;20.90;11.50;;;;;;;29.40;39.06;98873.00;4939944;29;20147;-94
2023/06/19 10:32:45;;;;;;;17.85;11.50;;;;;;;29.74;38.00;98888.69;4939118;29;20047;-94
2023/06/19 10:35:12;;;;;;;15.20;10.35;;;;;;;29.82;37.76;98882.41;4940254;29;20494;-94
2023/06/19 10:37:38;;;;;;;18.63;10.63;;;;;;;30.03;36.03;98891.09;4938579;29;20099;-93
2023/06/19 10:40:08;;;;;;;14.50;10.10;;;;;;;30.21;35.62;98876.44;4937800;29;20507;-94
2023/06/19 10:42:36;;;;;;;14.23;10.02;;;;;;;30.18;35.62;98874.88;4935674;29;20079;-93
2023/06/19 10:45:03;;;;;;;16.35;10.05;;;;;;;30.25;35.28;98866.84;4940778;29;20036;-92
2023/06/19 10:47:29;;;;;;;14.32;10.05;;;;;;;30.28;35.05;98856.47;4958921;28;20054;-94
2023/06/19 10:49:55;;;;;;;14.93;9.73;;;;;;;30.38;34.88;98864.53;4937379;29;20518;-93
2023/06/19 10:52:21;;;;;;;15.15;9.60;;;;;;;30.42;34.81;98867.81;4938171;29;20058;-94
2023/06/19 10:54:54;;;;;;;17.33;10.02;;;;;;;30.17;34.95;98867.69;4938273;29;20036;-92
2023/06/19 10:57:27;;;;;;;14.60;9.90;;;;;;;30.08;35.88;98868.69;4938699;29;20139;-93
2023/06/19 10:59:54;;;;;;;17.02;9.65;;;;;;;30.13;35.01;98863.56;4931920;29;20044;-94
2023/06/19 11:02:21;;;;;;;16.98;9.65;;;;;;;30.21;36.05;98858.13;4927079;29;20102;-95
2023/06/19 11:04:46;;;;;;;14.48;9.68;;;;;;;29.83;35.51;98851.22;4940307;28;20076;-95
2023/06/19 11:07:12;;;;;;;14.15;9.70;;;;;;;29.29;37.00;98867.78;4939738;29;20067;-95
2023/06/19 11:09:38;;;;;;;16.73;9.52;;;;;;;29.62;36.92;98862.53;4941320;29;20517;-93
2023/06/19 11:12:07;;;;;;;15.55;9.75;;;;;;;29.85;36.70;98840.97;4932047;29;20044;-94
2023/06/19 11:14:39;;;;;;;15.50;9.40;;;;;;;30.07;36.24;98845.03;4934300;29;20095;-95